createdAt,value
2023-01-02T00:03:36.111Z,15.73
2023-01-02T00:08:41.350Z,15.23
2023-01-02T00:13:46.381Z,16.13
2023-01-02T00:18:54.401Z,15.07
2023-01-02T00:23:59.346Z,13.33
2023-01-02T00:29:05.280Z,14.50
2023-01-02T00:34:13.115Z,13.47
2023-01-02T00:39:18.161Z,14.80
2023-01-02T00:44:23.927Z,12.50
2023-01-02T00:49:33.284Z,14.47
2023-01-02T00:54:38.203Z,13.47
2023-01-02T00:59:43.101Z,11.47
2023-01-02T01:04:50.923Z,13.10
2023-01-02T01:09:55.758Z,12.10
2023-01-02T01:15:00.728Z,14.75
2023-01-02T01:20:09.746Z,9.87
2023-01-02T01:25:14.852Z,13.07
2023-01-02T01:30:19.796Z,12.90
2023-01-02T01:35:27.507Z,15.93
2023-01-02T01:40:39.618Z,14.00
2023-01-02T01:45:46.463Z,10.07
2023-01-02T01:50:53.977Z,10.83
2023-01-02T01:56:06.838Z,11.80
2023-01-02T02:01:13.927Z,17.23
2023-01-02T02:06:23.144Z,11.27
2023-01-02T02:11:28.428Z,12.47
2023-01-02T02:16:43.862Z,11.57
2023-01-02T02:22:17.696Z,12.80
2023-01-02T02:27:46.458Z,13.10
2023-01-02T02:33:18.286Z,16.83
2023-01-02T02:38:36.335Z,17.27
2023-01-02T02:43:49.869Z,15.53
2023-01-02T02:49:03.389Z,15.03
2023-01-02T02:54:14.010Z,17.30
2023-01-02T02:59:19.658Z,15.17
2023-01-02T03:04:29.104Z,17.13
2023-01-02T03:09:41.824Z,15.07
2023-01-02T03:14:54.927Z,19.73
2023-01-02T03:20:10.076Z,14.97
2023-01-02T03:25:18.143Z,15.33
2023-01-02T03:30:25.618Z,15.43
2023-01-02T03:35:39.346Z,19.20
2023-01-02T03:40:48.841Z,17.83
2023-01-02T03:46:04.457Z,20.53
2023-01-02T03:51:13.424Z,14.33
2023-01-02T03:56:26.183Z,18.67
2023-01-02T04:01:47.044Z,17.47
2023-01-02T04:07:02.739Z,15.40
2023-01-02T04:12:16.543Z,14.73
2023-01-02T04:17:25.162Z,17.07
2023-01-02T04:22:38.401Z,19.70
2023-01-02T04:27:49.359Z,17.63
2023-01-02T04:32:55.624Z,16.63
2023-01-02T04:38:10.442Z,16.60
2023-01-02T04:43:25.347Z,15.00
2023-01-02T04:48:31.642Z,16.30
2023-01-02T04:53:39.486Z,15.93
2023-01-02T04:58:45.007Z,16.50
2023-01-02T05:03:54.134Z,15.70
2023-01-02T05:09:02.001Z,17.47
2023-01-02T05:14:07.823Z,18.30
2023-01-02T05:19:13.021Z,15.27
2023-01-02T05:24:20.707Z,18.20
2023-01-02T05:29:26.444Z,19.33
2023-01-02T05:34:31.581Z,14.10
2023-01-02T05:39:39.158Z,14.50
2023-01-02T05:44:44.094Z,21.00
2023-01-02T05:49:50.299Z,15.63
2023-01-02T05:54:58.221Z,15.43
2023-01-02T06:00:04.432Z,14.17
2023-01-02T06:05:17.841Z,14.30
2023-01-02T06:10:25.446Z,14.87
2023-01-02T06:15:35.062Z,14.83
2023-01-02T06:20:40.802Z,16.47
2023-01-02T06:25:49.954Z,11.30
2023-01-02T06:30:56.152Z,12.60
2023-01-02T06:36:05.353Z,13.93
2023-01-02T06:41:17.432Z,12.50
2023-01-02T06:46:26.788Z,15.07
2023-01-02T06:51:34.678Z,16.13
2023-01-02T06:56:47.469Z,18.00
2023-01-02T07:02:01.629Z,16.03
2023-01-02T07:07:11.892Z,16.17
2023-01-02T07:12:21.958Z,16.33
2023-01-02T07:17:27.342Z,15.83
2023-01-02T07:22:32.304Z,17.70
2023-01-02T07:27:39.911Z,17.20
2023-01-02T07:32:45.620Z,13.57
2023-01-02T07:37:52.220Z,16.37
2023-01-02T07:43:00.007Z,15.07
2023-01-02T07:48:06.069Z,13.73
2023-01-02T07:53:11.210Z,13.70
2023-01-02T07:58:32.135Z,15.60
2023-01-02T08:03:39.382Z,12.60
2023-01-02T08:08:45.928Z,13.40
2023-01-02T08:13:54.587Z,13.30
2023-01-02T08:18:59.657Z,15.23
2023-01-02T08:24:10.602Z,14.03
2023-01-02T08:29:31.091Z,12.27
2023-01-02T08:34:38.431Z,14.63
2023-01-02T08:39:45.652Z,15.40
2023-01-02T08:44:55.029Z,12.07
2023-01-02T08:50:00.147Z,13.80
2023-01-02T08:55:06.137Z,16.07
2023-01-02T09:00:17.532Z,15.53
2023-01-02T09:05:25.031Z,12.93
2023-01-02T09:10:36.115Z,15.67
2023-01-02T09:15:47.366Z,12.83
2023-01-02T09:20:54.431Z,11.13
2023-01-02T09:26:03.166Z,10.77
2023-01-02T09:31:13.331Z,15.00
2023-01-02T09:36:22.537Z,11.13
2023-01-02T09:41:34.913Z,10.83
2023-01-02T09:46:55.648Z,12.73
2023-01-02T09:52:00.969Z,9.97
2023-01-02T09:57:20.086Z,12.63
2023-01-02T10:02:42.545Z,12.90
2023-01-02T10:07:55.969Z,11.13
2023-01-02T10:13:09.144Z,13.70
2023-01-02T10:18:23.111Z,9.97
2023-01-02T10:23:30.999Z,9.00
2023-01-02T10:28:47.536Z,10.13
2023-01-02T10:34:03.205Z,11.80
2023-01-02T10:39:16.426Z,10.93
2023-01-02T10:44:27.780Z,10.53
2023-01-02T10:49:37.937Z,9.53
2023-01-02T10:54:58.978Z,12.13
2023-01-02T11:00:06.166Z,11.87
2023-01-02T11:05:23.441Z,12.33
2023-01-02T11:10:31.103Z,11.70
2023-01-02T11:15:37.230Z,11.97
2023-01-02T11:20:52.376Z,11.53
2023-01-02T11:25:57.674Z,12.07
2023-01-02T11:31:14.844Z,13.17
2023-01-02T11:36:22.919Z,11.63
2023-01-02T11:41:52.135Z,12.17
2023-01-02T11:46:58.642Z,13.03
2023-01-02T11:52:08.904Z,10.30
2023-01-02T11:57:18.899Z,8.20
2023-01-02T12:02:30.066Z,9.90
2023-01-02T12:07:46.208Z,7.97
2023-01-02T12:13:03.380Z,9.40
2023-01-02T12:18:22.109Z,10.73
2023-01-02T12:23:39.804Z,10.80
2023-01-02T12:29:07.335Z,9.83
2023-01-02T12:34:25.492Z,13.17
2023-01-02T12:39:55.265Z,10.17
2023-01-02T12:45:03.008Z,11.60
2023-01-02T12:50:34.060Z,12.33
2023-01-02T12:55:52.789Z,10.70
2023-01-02T13:01:15.792Z,10.20
2023-01-02T13:06:44.496Z,8.97
2023-01-02T13:12:02.973Z,10.13
2023-01-02T13:17:27.662Z,11.10
2023-01-02T13:22:39.935Z,9.37
2023-01-02T13:27:50.164Z,11.17
2023-01-02T13:32:55.351Z,11.07
2023-01-02T13:38:05.407Z,9.20
2023-01-02T13:43:20.459Z,9.63
2023-01-02T13:48:35.103Z,12.83
2023-01-02T13:53:43.168Z,13.47
2023-01-02T13:58:55.334Z,9.50
2023-01-02T14:04:32.493Z,10.57
2023-01-02T14:10:13.616Z,11.33
2023-01-02T14:15:26.260Z,11.30
2023-01-02T14:20:35.740Z,10.10
2023-01-02T14:25:50.772Z,11.67
2023-01-02T14:31:03.241Z,9.33
2023-01-02T14:36:13.802Z,11.67
2023-01-02T14:42:06.692Z,10.37
2023-01-02T14:47:20.855Z,9.90
2023-01-02T14:52:30.798Z,11.63
2023-01-02T14:57:40.175Z,11.33
2023-01-02T15:02:50.981Z,9.83
2023-01-02T15:08:00.154Z,12.77
2023-01-02T15:13:08.126Z,13.50
2023-01-02T15:18:20.653Z,13.30
2023-01-02T15:23:28.307Z,13.30
2023-01-02T15:28:35.988Z,12.63
2023-01-02T15:33:43.628Z,13.73
2023-01-02T15:38:50.442Z,12.90
2023-01-02T15:44:11.172Z,14.10
2023-01-02T15:49:20.292Z,12.20
2023-01-02T15:54:27.546Z,12.77
2023-01-02T15:59:38.948Z,12.97
2023-01-02T16:04:46.567Z,8.83
2023-01-02T16:09:59.994Z,8.60
2023-01-02T16:15:14.794Z,9.30
2023-01-02T16:20:27.686Z,7.33
2023-01-02T16:25:34.183Z,8.27
2023-01-02T16:30:42.845Z,7.17
2023-01-02T16:36:00.211Z,8.80
2023-01-02T16:41:12.591Z,9.90
2023-01-02T16:46:19.072Z,9.13
2023-01-02T16:51:27.074Z,6.70
2023-01-02T16:56:33.046Z,8.60
2023-01-02T17:01:38.232Z,5.17
2023-01-02T17:06:46.347Z,6.70
2023-01-02T17:12:03.155Z,8.20
2023-01-02T17:17:09.645Z,7.97
2023-01-02T17:22:17.328Z,11.43
2023-01-02T17:27:22.854Z,4.67
2023-01-02T17:32:28.630Z,7.60
2023-01-02T17:37:37.541Z,12.47
2023-01-02T17:42:44.175Z,15.57
2023-01-02T17:48:02.215Z,11.13
2023-01-02T17:53:11.998Z,12.97
2023-01-02T17:58:19.057Z,14.80
2023-01-02T18:03:24.170Z,9.80
2023-01-02T18:08:34.650Z,7.67
2023-01-02T18:13:44.307Z,8.57
2023-01-02T18:18:49.648Z,7.27
2023-01-02T18:24:01.668Z,10.37
2023-01-02T18:29:10.114Z,7.10
2023-01-02T18:34:46.576Z,7.27
2023-01-02T18:39:48.942Z,8.83
2023-01-02T18:44:57.702Z,8.97
2023-01-02T18:50:35.073Z,12.77
2023-01-02T18:55:42.640Z,11.07
2023-01-02T19:00:48.793Z,8.33
2023-01-02T19:05:53.840Z,4.97
2023-01-02T19:11:22.290Z,7.53
2023-01-02T19:16:28.813Z,6.47
2023-01-02T19:21:38.067Z,9.17
2023-01-02T19:26:48.707Z,6.97
2023-01-02T19:32:00.016Z,6.80
2023-01-02T19:37:25.771Z,7.53
2023-01-02T19:42:35.748Z,7.43
2023-01-02T19:47:42.377Z,8.03
2023-01-02T19:52:47.983Z,8.10
2023-01-02T19:57:57.548Z,4.70
2023-01-02T20:03:03.187Z,6.63
2023-01-02T20:08:16.720Z,7.37
2023-01-02T20:13:26.999Z,8.90
2023-01-02T20:18:32.897Z,4.87
2023-01-02T20:23:39.931Z,13.50
2023-01-02T20:28:48.977Z,6.50
2023-01-02T20:33:56.443Z,5.00
2023-01-02T20:39:03.128Z,5.57
2023-01-02T20:44:15.877Z,2.30
2023-01-02T20:49:25.302Z,6.00
2023-01-02T20:54:31.259Z,6.40
2023-01-02T20:59:39.490Z,3.90
2023-01-02T21:04:45.123Z,5.13
2023-01-02T21:09:50.344Z,2.27
2023-01-02T21:14:58.409Z,5.77
2023-01-02T21:20:04.537Z,2.70
2023-01-02T21:25:10.299Z,4.67
2023-01-02T21:30:18.442Z,1.27
2023-01-02T21:35:24.929Z,2.20
2023-01-02T21:40:30.174Z,3.03
2023-01-02T21:45:40.349Z,3.33
2023-01-02T21:50:45.645Z,4.17
2023-01-02T21:55:50.751Z,5.50
2023-01-02T22:00:58.517Z,4.43
2023-01-02T22:06:03.454Z,4.87
2023-01-02T22:11:21.025Z,3.00
2023-01-02T22:16:28.612Z,3.27
2023-01-02T22:21:36.549Z,2.63
2023-01-02T22:26:42.886Z,2.57
2023-01-02T22:31:51.765Z,1.87
2023-01-02T22:36:57.322Z,2.90
2023-01-02T22:42:48.798Z,2.33
2023-01-02T22:47:46.560Z,2.60
2023-01-02T22:52:52.717Z,2.60
2023-01-02T22:57:58.077Z,2.27
2023-01-02T23:03:05.678Z,2.13
2023-01-02T23:08:11.091Z,2.30
2023-01-02T23:13:16.054Z,2.33
2023-01-02T23:18:35.873Z,2.07
2023-01-02T23:23:41.730Z,2.47
2023-01-02T23:34:16.814Z,3.57
2023-01-02T23:39:23.418Z,1.60
2023-01-02T23:44:29.002Z,2.40
2023-01-02T23:49:36.503Z,1.60
2023-01-02T23:54:41.992Z,2.00
2023-01-02T23:59:47.040Z,1.40
